sensor_id;sensor_type;location;lat;lon;timestamp;P1;durP1;ratioP1;P2;durP2;ratioP2
35648;SDS011;21768;48.562;13.414;2023-05-10T00:01:41;6.80;;;3.90;;
35648;SDS011;21768;48.562;13.414;2023-05-10T00:04:07;5.53;;;3.95;;
35648;SDS011;21768;48.562;13.414;2023-05-10T00:06:32;5.65;;;3.63;;
35648;SDS011;21768;48.562;13.414;2023-05-10T00:08:58;7.07;;;3.78;;
35648;SDS011;21768;48.562;13.414;2023-05-10T00:11:23;7.55;;;4.28;;
35648;SDS011;21768;48.562;13.414;2023-05-10T00:13:49;7.60;;;3.92;;
35648;SDS011;21768;48.562;13.414;2023-05-10T00:16:14;9.05;;;4.05;;
35648;SDS011;21768;48.562;13.414;2023-05-10T00:18:39;4.82;;;3.55;;
35648;SDS011;21768;48.562;13.414;2023-05-10T00:21:05;11.68;;;3.67;;
35648;SDS011;21768;48.562;13.414;2023-05-10T00:23:31;5.15;;;3.40;;
35648;SDS011;21768;48.562;13.414;2023-05-10T00:25:56;6.50;;;3.20;;
35648;SDS011;21768;48.562;13.414;2023-05-10T00:28:22;6.40;;;3.40;;
35648;SDS011;21768;48.562;13.414;2023-05-10T00:30:47;4.65;;;3.25;;
35648;SDS011;21768;48.562;13.414;2023-05-10T00:33:13;6.18;;;3.95;;
35648;SDS011;21768;48.562;13.414;2023-05-10T00:35:38;6.55;;;3.78;;
35648;SDS011;21768;48.562;13.414;2023-05-10T00:38:03;5.50;;;3.63;;
35648;SDS011;21768;48.562;13.414;2023-05-10T00:40:29;5.47;;;3.30;;
35648;SDS011;21768;48.562;13.414;2023-05-10T00:42:56;7.72;;;3.90;;
35648;SDS011;21768;48.562;13.414;2023-05-10T00:45:23;9.32;;;3.50;;
35648;SDS011;21768;48.562;13.414;2023-05-10T00:47:49;6.03;;;3.88;;
35648;SDS011;21768;48.562;13.414;2023-05-10T00:50:14;6.72;;;3.92;;
35648;SDS011;21768;48.562;13.414;2023-05-10T00:52:40;6.20;;;3.80;;
35648;SDS011;21768;48.562;13.414;2023-05-10T00:55:07;8.18;;;3.65;;
35648;SDS011;21768;48.562;13.414;2023-05-10T00:57:33;7.80;;;3.58;;
35648;SDS011;21768;48.562;13.414;2023-05-10T00:59:59;4.97;;;3.40;;
35648;SDS011;21768;48.562;13.414;2023-05-10T01:02:24;5.88;;;3.45;;
35648;SDS011;21768;48.562;13.414;2023-05-10T01:04:50;5.63;;;3.42;;
35648;SDS011;21768;48.562;13.414;2023-05-10T01:07:16;5.45;;;3.50;;
35648;SDS011;21768;48.562;13.414;2023-05-10T01:09:42;6.20;;;3.50;;
35648;SDS011;21768;48.562;13.414;2023-05-10T01:12:07;5.65;;;3.50;;
35648;SDS011;21768;48.562;13.414;2023-05-10T01:14:33;12.05;;;3.28;;
35648;SDS011;21768;48.562;13.414;2023-05-10T01:17:01;6.75;;;4.00;;
35648;SDS011;21768;48.562;13.414;2023-05-10T01:19:27;9.25;;;3.45;;
35648;SDS011;21768;48.562;13.414;2023-05-10T01:33:19;6.30;;;3.63;;
35648;SDS011;21768;48.562;13.414;2023-05-10T01:36:05;6.30;;;3.80;;
35648;SDS011;21768;48.562;13.414;2023-05-10T01:47:10;8.82;;;3.50;;
35648;SDS011;21768;48.562;13.414;2023-05-10T01:49:39;5.63;;;3.63;;
35648;SDS011;21768;48.562;13.414;2023-05-10T01:52:09;9.00;;;3.45;;
35648;SDS011;21768;48.562;13.414;2023-05-10T01:54:41;7.20;;;3.75;;
35648;SDS011;21768;48.562;13.414;2023-05-10T01:57:09;6.53;;;4.13;;
35648;SDS011;21768;48.562;13.414;2023-05-10T01:59:39;8.18;;;3.95;;
35648;SDS011;21768;48.562;13.414;2023-05-10T02:02:07;7.75;;;3.88;;
35648;SDS011;21768;48.562;13.414;2023-05-10T02:04:36;4.68;;;3.35;;
35648;SDS011;21768;48.562;13.414;2023-05-10T02:07:04;5.97;;;3.70;;
35648;SDS011;21768;48.562;13.414;2023-05-10T02:09:32;7.32;;;4.47;;
35648;SDS011;21768;48.562;13.414;2023-05-10T02:12:00;8.02;;;4.00;;
35648;SDS011;21768;48.562;13.414;2023-05-10T02:14:27;8.30;;;4.00;;
35648;SDS011;21768;48.562;13.414;2023-05-10T02:16:55;8.23;;;4.53;;
35648;SDS011;21768;48.562;13.414;2023-05-10T02:19:23;7.03;;;4.10;;
35648;SDS011;21768;48.562;13.414;2023-05-10T02:21:50;7.25;;;4.07;;
35648;SDS011;21768;48.562;13.414;2023-05-10T02:24:16;7.03;;;4.22;;
35648;SDS011;21768;48.562;13.414;2023-05-10T02:26:43;8.23;;;4.13;;
35648;SDS011;21768;48.562;13.414;2023-05-10T02:29:10;9.93;;;4.53;;
35648;SDS011;21768;48.562;13.414;2023-05-10T02:31:37;6.63;;;4.18;;
35648;SDS011;21768;48.562;13.414;2023-05-10T02:34:03;8.90;;;3.80;;
35648;SDS011;21768;48.562;13.414;2023-05-10T02:36:30;8.05;;;4.05;;
35648;SDS011;21768;48.562;13.414;2023-05-10T02:38:57;7.25;;;4.32;;
35648;SDS011;21768;48.562;13.414;2023-05-10T02:41:24;7.07;;;3.80;;
35648;SDS011;21768;48.562;13.414;2023-05-10T02:43:51;9.13;;;4.35;;
35648;SDS011;21768;48.562;13.414;2023-05-10T02:46:18;5.32;;;3.90;;
35648;SDS011;21768;48.562;13.414;2023-05-10T02:48:44;6.82;;;4.07;;
35648;SDS011;21768;48.562;13.414;2023-05-10T02:51:09;6.80;;;3.95;;
35648;SDS011;21768;48.562;13.414;2023-05-10T02:53:40;9.27;;;5.28;;
35648;SDS011;21768;48.562;13.414;2023-05-10T02:56:12;8.68;;;4.22;;
35648;SDS011;21768;48.562;13.414;2023-05-10T02:58:43;10.10;;;4.32;;
35648;SDS011;21768;48.562;13.414;2023-05-10T03:01:08;7.20;;;4.43;;
35648;SDS011;21768;48.562;13.414;2023-05-10T03:03:34;10.45;;;4.80;;
35648;SDS011;21768;48.562;13.414;2023-05-10T03:06:00;8.30;;;4.80;;
35648;SDS011;21768;48.562;13.414;2023-05-10T03:08:25;9.18;;;4.47;;
35648;SDS011;21768;48.562;13.414;2023-05-10T03:11:14;6.90;;;4.50;;
35648;SDS011;21768;48.562;13.414;2023-05-10T03:14:08;7.75;;;4.40;;
35648;SDS011;21768;48.562;13.414;2023-05-10T03:16:56;10.80;;;4.65;;
35648;SDS011;21768;48.562;13.414;2023-05-10T03:19:48;6.70;;;4.28;;
35648;SDS011;21768;48.562;13.414;2023-05-10T03:24:46;8.35;;;4.85;;
35648;SDS011;21768;48.562;13.414;2023-05-10T03:27:14;9.75;;;4.70;;
35648;SDS011;21768;48.562;13.414;2023-05-10T03:29:40;11.68;;;4.30;;
35648;SDS011;21768;48.562;13.414;2023-05-10T03:32:07;9.95;;;4.80;;
35648;SDS011;21768;48.562;13.414;2023-05-10T03:34:33;10.18;;;4.20;;
35648;SDS011;21768;48.562;13.414;2023-05-10T03:36:58;8.00;;;4.40;;
35648;SDS011;21768;48.562;13.414;2023-05-10T03:39:23;7.78;;;4.70;;
35648;SDS011;21768;48.562;13.414;2023-05-10T03:41:49;7.85;;;3.92;;
35648;SDS011;21768;48.562;13.414;2023-05-10T03:44:15;24.00;;;11.98;;
35648;SDS011;21768;48.562;13.414;2023-05-10T03:46:40;18.52;;;9.80;;
35648;SDS011;21768;48.562;13.414;2023-05-10T03:49:05;10.15;;;5.25;;
35648;SDS011;21768;48.562;13.414;2023-05-10T03:51:31;6.75;;;4.22;;
35648;SDS011;21768;48.562;13.414;2023-05-10T03:53:56;11.50;;;4.28;;
35648;SDS011;21768;48.562;13.414;2023-05-10T03:56:21;8.38;;;4.53;;
35648;SDS011;21768;48.562;13.414;2023-05-10T03:58:47;8.77;;;4.80;;
35648;SDS011;21768;48.562;13.414;2023-05-10T04:01:12;9.52;;;4.80;;
35648;SDS011;21768;48.562;13.414;2023-05-10T04:03:38;7.05;;;4.20;;
35648;SDS011;21768;48.562;13.414;2023-05-10T04:06:03;8.50;;;4.10;;
35648;SDS011;21768;48.562;13.414;2023-05-10T04:08:29;13.88;;;4.68;;
35648;SDS011;21768;48.562;13.414;2023-05-10T04:10:55;9.35;;;4.75;;
35648;SDS011;21768;48.562;13.414;2023-05-10T04:13:30;8.65;;;4.50;;
35648;SDS011;21768;48.562;13.414;2023-05-10T04:15:55;6.70;;;4.03;;
35648;SDS011;21768;48.562;13.414;2023-05-10T04:18:21;11.25;;;4.47;;
35648;SDS011;21768;48.562;13.414;2023-05-10T04:20:46;10.45;;;4.45;;
35648;SDS011;21768;48.562;13.414;2023-05-10T04:23:11;10.45;;;4.93;;
35648;SDS011;21768;48.562;13.414;2023-05-10T04:25:39;10.25;;;4.75;;
35648;SDS011;21768;48.562;13.414;2023-05-10T04:28:04;10.85;;;4.32;;
35648;SDS011;21768;48.562;13.414;2023-05-10T04:30:29;7.05;;;4.22;;
35648;SDS011;21768;48.562;13.414;2023-05-10T04:32:55;9.38;;;4.85;;
35648;SDS011;21768;48.562;13.414;2023-05-10T04:35:20;7.05;;;4.55;;
35648;SDS011;21768;48.562;13.414;2023-05-10T04:37:46;6.50;;;4.05;;
35648;SDS011;21768;48.562;13.414;2023-05-10T04:40:11;6.55;;;4.47;;
35648;SDS011;21768;48.562;13.414;2023-05-10T04:42:39;9.90;;;4.45;;
35648;SDS011;21768;48.562;13.414;2023-05-10T04:45:06;6.90;;;4.78;;
35648;SDS011;21768;48.562;13.414;2023-05-10T04:47:31;9.00;;;5.10;;
35648;SDS011;21768;48.562;13.414;2023-05-10T04:49:57;15.40;;;4.85;;
35648;SDS011;21768;48.562;13.414;2023-05-10T04:52:23;7.72;;;4.85;;
35648;SDS011;21768;48.562;13.414;2023-05-10T04:54:49;6.20;;;4.53;;
35648;SDS011;21768;48.562;13.414;2023-05-10T04:57:14;7.70;;;4.65;;
35648;SDS011;21768;48.562;13.414;2023-05-10T04:59:39;7.18;;;4.97;;
35648;SDS011;21768;48.562;13.414;2023-05-10T05:02:05;7.95;;;4.70;;
35648;SDS011;21768;48.562;13.414;2023-05-10T05:04:30;7.22;;;5.10;;
35648;SDS011;21768;48.562;13.414;2023-05-10T05:06:56;7.57;;;5.07;;
35648;SDS011;21768;48.562;13.414;2023-05-10T05:09:22;11.05;;;5.15;;
35648;SDS011;21768;48.562;13.414;2023-05-10T05:11:47;9.88;;;5.18;;
35648;SDS011;21768;48.562;13.414;2023-05-10T05:14:13;6.38;;;4.60;;
35648;SDS011;21768;48.562;13.414;2023-05-10T05:16:39;7.70;;;4.68;;
35648;SDS011;21768;48.562;13.414;2023-05-10T05:19:04;12.52;;;5.22;;
35648;SDS011;21768;48.562;13.414;2023-05-10T05:21:30;9.30;;;5.47;;
35648;SDS011;21768;48.562;13.414;2023-05-10T05:23:57;9.52;;;5.80;;
35648;SDS011;21768;48.562;13.414;2023-05-10T05:26:22;8.80;;;5.05;;
35648;SDS011;21768;48.562;13.414;2023-05-10T05:28:47;8.70;;;5.38;;
35648;SDS011;21768;48.562;13.414;2023-05-10T05:31:14;7.40;;;5.13;;
35648;SDS011;21768;48.562;13.414;2023-05-10T05:33:40;7.57;;;5.72;;
35648;SDS011;21768;48.562;13.414;2023-05-10T05:36:06;7.13;;;5.35;;
35648;SDS011;21768;48.562;13.414;2023-05-10T05:38:31;9.25;;;5.82;;
35648;SDS011;21768;48.562;13.414;2023-05-10T05:40:57;9.00;;;5.65;;
35648;SDS011;21768;48.562;13.414;2023-05-10T05:43:22;10.43;;;6.07;;
35648;SDS011;21768;48.562;13.414;2023-05-10T05:45:48;15.30;;;6.72;;
35648;SDS011;21768;48.562;13.414;2023-05-10T05:48:14;9.57;;;5.63;;
35648;SDS011;21768;48.562;13.414;2023-05-10T05:50:39;11.05;;;6.03;;
35648;SDS011;21768;48.562;13.414;2023-05-10T05:53:04;9.82;;;5.70;;
35648;SDS011;21768;48.562;13.414;2023-05-10T05:55:30;16.85;;;6.93;;
35648;SDS011;21768;48.562;13.414;2023-05-10T05:57:56;9.52;;;5.78;;
35648;SDS011;21768;48.562;13.414;2023-05-10T06:00:22;8.98;;;5.50;;
35648;SDS011;21768;48.562;13.414;2023-05-10T06:02:47;11.27;;;6.20;;
35648;SDS011;21768;48.562;13.414;2023-05-10T06:05:13;13.00;;;6.38;;
35648;SDS011;21768;48.562;13.414;2023-05-10T06:07:39;12.20;;;6.07;;
35648;SDS011;21768;48.562;13.414;2023-05-10T06:10:07;11.75;;;6.22;;
35648;SDS011;21768;48.562;13.414;2023-05-10T06:12:33;9.93;;;6.25;;
35648;SDS011;21768;48.562;13.414;2023-05-10T06:14:58;10.20;;;6.28;;
35648;SDS011;21768;48.562;13.414;2023-05-10T06:17:24;10.13;;;6.35;;
35648;SDS011;21768;48.562;13.414;2023-05-10T06:19:50;11.13;;;6.45;;
35648;SDS011;21768;48.562;13.414;2023-05-10T06:22:15;10.52;;;6.97;;
35648;SDS011;21768;48.562;13.414;2023-05-10T06:24:41;15.77;;;6.35;;
35648;SDS011;21768;48.562;13.414;2023-05-10T06:27:06;12.07;;;6.82;;
35648;SDS011;21768;48.562;13.414;2023-05-10T06:29:32;9.38;;;6.35;;
35648;SDS011;21768;48.562;13.414;2023-05-10T06:31:57;10.00;;;6.72;;
35648;SDS011;21768;48.562;13.414;2023-05-10T06:34:23;8.95;;;6.50;;
35648;SDS011;21768;48.562;13.414;2023-05-10T06:36:49;17.67;;;11.05;;
35648;SDS011;21768;48.562;13.414;2023-05-10T06:39:14;12.48;;;6.55;;
35648;SDS011;21768;48.562;13.414;2023-05-10T06:41:40;11.35;;;7.03;;
35648;SDS011;21768;48.562;13.414;2023-05-10T06:44:05;11.13;;;6.45;;
35648;SDS011;21768;48.562;13.414;2023-05-10T06:46:31;13.57;;;6.80;;
35648;SDS011;21768;48.562;13.414;2023-05-10T06:48:56;8.77;;;6.30;;
35648;SDS011;21768;48.562;13.414;2023-05-10T06:51:21;11.90;;;6.72;;
35648;SDS011;21768;48.562;13.414;2023-05-10T06:53:47;12.77;;;7.13;;
35648;SDS011;21768;48.562;13.414;2023-05-10T06:56:12;13.27;;;6.93;;
35648;SDS011;21768;48.562;13.414;2023-05-10T06:58:37;13.15;;;7.57;;
35648;SDS011;21768;48.562;13.414;2023-05-10T07:01:04;16.70;;;6.80;;
35648;SDS011;21768;48.562;13.414;2023-05-10T07:03:30;14.30;;;6.93;;
35648;SDS011;21768;48.562;13.414;2023-05-10T07:06:02;11.00;;;6.97;;
35648;SDS011;21768;48.562;13.414;2023-05-10T07:08:31;13.70;;;7.22;;
35648;SDS011;21768;48.562;13.414;2023-05-10T07:11:00;12.52;;;6.57;;
35648;SDS011;21768;48.562;13.414;2023-05-10T07:13:28;12.60;;;6.20;;
35648;SDS011;21768;48.562;13.414;2023-05-10T07:15:54;10.88;;;6.60;;
35648;SDS011;21768;48.562;13.414;2023-05-10T07:18:19;11.93;;;7.97;;
35648;SDS011;21768;48.562;13.414;2023-05-10T07:20:45;12.55;;;7.93;;
35648;SDS011;21768;48.562;13.414;2023-05-10T07:23:10;10.60;;;7.00;;
35648;SDS011;21768;48.562;13.414;2023-05-10T07:25:36;11.48;;;7.47;;
35648;SDS011;21768;48.562;13.414;2023-05-10T07:28:01;12.05;;;8.00;;
35648;SDS011;21768;48.562;13.414;2023-05-10T07:30:26;15.93;;;7.55;;
35648;SDS011;21768;48.562;13.414;2023-05-10T07:32:52;12.27;;;7.13;;
35648;SDS011;21768;48.562;13.414;2023-05-10T07:35:17;11.32;;;7.25;;
35648;SDS011;21768;48.562;13.414;2023-05-10T07:37:42;11.68;;;7.13;;
35648;SDS011;21768;48.562;13.414;2023-05-10T07:40:08;14.50;;;8.10;;
35648;SDS011;21768;48.562;13.414;2023-05-10T07:42:34;14.35;;;7.82;;
35648;SDS011;21768;48.562;13.414;2023-05-10T07:44:59;11.05;;;7.28;;
35648;SDS011;21768;48.562;13.414;2023-05-10T07:47:24;15.93;;;7.82;;
35648;SDS011;21768;48.562;13.414;2023-05-10T07:49:50;12.10;;;7.57;;
35648;SDS011;21768;48.562;13.414;2023-05-10T07:52:15;10.30;;;6.93;;
35648;SDS011;21768;48.562;13.414;2023-05-10T07:54:40;15.70;;;8.00;;
35648;SDS011;21768;48.562;13.414;2023-05-10T07:57:06;10.93;;;7.10;;
35648;SDS011;21768;48.562;13.414;2023-05-10T07:59:31;11.13;;;7.63;;
35648;SDS011;21768;48.562;13.414;2023-05-10T08:01:57;14.10;;;8.05;;
35648;SDS011;21768;48.562;13.414;2023-05-10T08:04:22;13.75;;;8.90;;
35648;SDS011;21768;48.562;13.414;2023-05-10T08:06:48;13.85;;;8.85;;
35648;SDS011;21768;48.562;13.414;2023-05-10T08:09:13;12.13;;;8.15;;
35648;SDS011;21768;48.562;13.414;2023-05-10T08:11:38;14.77;;;8.90;;
35648;SDS011;21768;48.562;13.414;2023-05-10T08:14:04;15.57;;;8.38;;
35648;SDS011;21768;48.562;13.414;2023-05-10T08:16:29;16.55;;;7.85;;
35648;SDS011;21768;48.562;13.414;2023-05-10T08:18:55;13.68;;;8.10;;
35648;SDS011;21768;48.562;13.414;2023-05-10T08:21:20;17.90;;;7.78;;
35648;SDS011;21768;48.562;13.414;2023-05-10T08:23:46;12.93;;;7.97;;
35648;SDS011;21768;48.562;13.414;2023-05-10T08:26:11;12.27;;;8.00;;
35648;SDS011;21768;48.562;13.414;2023-05-10T08:28:37;15.70;;;7.85;;
35648;SDS011;21768;48.562;13.414;2023-05-10T08:31:03;11.77;;;7.88;;
35648;SDS011;21768;48.562;13.414;2023-05-10T08:33:29;11.00;;;7.68;;
35648;SDS011;21768;48.562;13.414;2023-05-10T08:35:55;11.57;;;7.60;;
35648;SDS011;21768;48.562;13.414;2023-05-10T08:38:20;12.48;;;8.40;;
35648;SDS011;21768;48.562;13.414;2023-05-10T08:40:45;13.68;;;7.15;;
35648;SDS011;21768;48.562;13.414;2023-05-10T08:43:14;10.98;;;7.32;;
35648;SDS011;21768;48.562;13.414;2023-05-10T08:45:43;11.82;;;8.18;;
35648;SDS011;21768;48.562;13.414;2023-05-10T08:48:12;11.55;;;7.78;;
35648;SDS011;21768;48.562;13.414;2023-05-10T08:50:40;16.38;;;8.05;;
35648;SDS011;21768;48.562;13.414;2023-05-10T08:53:08;12.07;;;7.85;;
35648;SDS011;21768;48.562;13.414;2023-05-10T08:55:35;12.15;;;7.45;;
35648;SDS011;21768;48.562;13.414;2023-05-10T08:58:05;15.95;;;8.25;;
35648;SDS011;21768;48.562;13.414;2023-05-10T09:00:31;11.05;;;7.70;;
35648;SDS011;21768;48.562;13.414;2023-05-10T09:02:58;10.70;;;7.65;;
35648;SDS011;21768;48.562;13.414;2023-05-10T09:05:24;14.43;;;8.00;;
35648;SDS011;21768;48.562;13.414;2023-05-10T09:07:50;10.73;;;7.75;;
35648;SDS011;21768;48.562;13.414;2023-05-10T09:10:15;11.60;;;8.30;;
35648;SDS011;21768;48.562;13.414;2023-05-10T09:12:41;12.65;;;7.63;;
35648;SDS011;21768;48.562;13.414;2023-05-10T09:15:09;13.95;;;8.57;;
35648;SDS011;21768;48.562;13.414;2023-05-10T09:17:34;15.65;;;8.57;;
35648;SDS011;21768;48.562;13.414;2023-05-10T09:20:03;11.98;;;8.45;;
35648;SDS011;21768;48.562;13.414;2023-05-10T09:22:29;12.43;;;7.80;;
35648;SDS011;21768;48.562;13.414;2023-05-10T09:25:13;13.32;;;8.70;;
35648;SDS011;21768;48.562;13.414;2023-05-10T09:27:41;11.20;;;7.43;;
35648;SDS011;21768;48.562;13.414;2023-05-10T09:30:11;14.60;;;8.63;;
35648;SDS011;21768;48.562;13.414;2023-05-10T09:33:00;17.48;;;8.25;;
35648;SDS011;21768;48.562;13.414;2023-05-10T09:35:27;11.80;;;7.72;;
35648;SDS011;21768;48.562;13.414;2023-05-10T09:37:55;13.93;;;7.20;;
35648;SDS011;21768;48.562;13.414;2023-05-10T09:40:23;10.82;;;7.25;;
35648;SDS011;21768;48.562;13.414;2023-05-10T09:42:56;8.80;;;6.50;;
35648;SDS011;21768;48.562;13.414;2023-05-10T09:45:25;10.15;;;6.95;;
35648;SDS011;21768;48.562;13.414;2023-05-10T09:47:52;11.27;;;7.32;;
35648;SDS011;21768;48.562;13.414;2023-05-10T09:50:18;11.13;;;7.05;;
35648;SDS011;21768;48.562;13.414;2023-05-10T09:55:37;14.23;;;7.18;;
35648;SDS011;21768;48.562;13.414;2023-05-10T09:58:05;9.18;;;5.88;;
35648;SDS011;21768;48.562;13.414;2023-05-10T10:00:39;7.80;;;5.38;;
35648;SDS011;21768;48.562;13.414;2023-05-10T10:03:13;8.90;;;5.45;;
35648;SDS011;21768;48.562;13.414;2023-05-10T10:05:40;5.40;;;4.45;;
35648;SDS011;21768;48.562;13.414;2023-05-10T10:08:07;6.43;;;4.20;;
35648;SDS011;21768;48.562;13.414;2023-05-10T10:10:33;7.38;;;4.07;;
35648;SDS011;21768;48.562;13.414;2023-05-10T10:12:59;6.38;;;3.85;;
35648;SDS011;21768;48.562;13.414;2023-05-10T10:15:25;7.28;;;4.25;;
35648;SDS011;21768;48.562;13.414;2023-05-10T10:17:51;5.28;;;3.55;;
35648;SDS011;21768;48.562;13.414;2023-05-10T10:20:17;4.82;;;3.33;;
35648;SDS011;21768;48.562;13.414;2023-05-10T10:22:44;6.80;;;3.72;;
35648;SDS011;21768;48.562;13.414;2023-05-10T10:25:12;6.13;;;3.72;;
35648;SDS011;21768;48.562;13.414;2023-05-10T10:35:50;4.50;;;3.35;;
35648;SDS011;21768;48.562;13.414;2023-05-10T10:38:17;5.10;;;3.50;;
35648;SDS011;21768;48.562;13.414;2023-05-10T10:40:42;5.13;;;4.00;;
35648;SDS011;21768;48.562;13.414;2023-05-10T10:43:20;7.32;;;3.63;;
35648;SDS011;21768;48.562;13.414;2023-05-10T10:48:47;5.40;;;4.10;;
35648;SDS011;21768;48.562;13.414;2023-05-10T10:51:13;5.45;;;3.78;;
35648;SDS011;21768;48.562;13.414;2023-05-10T10:53:39;5.05;;;3.70;;
35648;SDS011;21768;48.562;13.414;2023-05-10T10:56:12;7.55;;;4.22;;
35648;SDS011;21768;48.562;13.414;2023-05-10T10:58:40;5.05;;;4.00;;
35648;SDS011;21768;48.562;13.414;2023-05-10T11:01:13;5.00;;;3.92;;
35648;SDS011;21768;48.562;13.414;2023-05-10T11:03:40;5.35;;;3.75;;
35648;SDS011;21768;48.562;13.414;2023-05-10T11:06:28;5.50;;;3.97;;
35648;SDS011;21768;48.562;13.414;2023-05-10T11:08:57;6.30;;;4.35;;
35648;SDS011;21768;48.562;13.414;2023-05-10T11:11:23;5.55;;;3.90;;
35648;SDS011;21768;48.562;13.414;2023-05-10T11:13:49;5.55;;;4.60;;
35648;SDS011;21768;48.562;13.414;2023-05-10T11:16:21;6.72;;;4.18;;
35648;SDS011;21768;48.562;13.414;2023-05-10T11:18:52;7.07;;;3.90;;
35648;SDS011;21768;48.562;13.414;2023-05-10T11:21:18;7.22;;;4.07;;
35648;SDS011;21768;48.562;13.414;2023-05-10T11:26:11;6.65;;;3.85;;
35648;SDS011;21768;48.562;13.414;2023-05-10T11:28:41;7.22;;;4.25;;
35648;SDS011;21768;48.562;13.414;2023-05-10T11:31:07;8.23;;;4.10;;
35648;SDS011;21768;48.562;13.414;2023-05-10T11:33:42;6.70;;;4.32;;
35648;SDS011;21768;48.562;13.414;2023-05-10T11:36:15;9.30;;;4.20;;
35648;SDS011;21768;48.562;13.414;2023-05-10T11:38:41;8.32;;;4.70;;
35648;SDS011;21768;48.562;13.414;2023-05-10T11:41:08;7.63;;;4.38;;
35648;SDS011;21768;48.562;13.414;2023-05-10T11:43:34;7.72;;;4.53;;
35648;SDS011;21768;48.562;13.414;2023-05-10T11:46:02;6.82;;;4.13;;
35648;SDS011;21768;48.562;13.414;2023-05-10T11:48:29;7.13;;;4.95;;
35648;SDS011;21768;48.562;13.414;2023-05-10T11:50:54;6.28;;;4.25;;
35648;SDS011;21768;48.562;13.414;2023-05-10T11:53:22;6.25;;;4.43;;
35648;SDS011;21768;48.562;13.414;2023-05-10T11:55:47;10.80;;;4.53;;
35648;SDS011;21768;48.562;13.414;2023-05-10T11:58:13;6.65;;;3.83;;
35648;SDS011;21768;48.562;13.414;2023-05-10T12:00:38;6.07;;;4.18;;
35648;SDS011;21768;48.562;13.414;2023-05-10T12:03:04;6.07;;;4.13;;
35648;SDS011;21768;48.562;13.414;2023-05-10T12:05:31;7.32;;;4.95;;
35648;SDS011;21768;48.562;13.414;2023-05-10T12:08:10;6.93;;;4.80;;
35648;SDS011;21768;48.562;13.414;2023-05-10T12:10:37;6.05;;;4.00;;
35648;SDS011;21768;48.562;13.414;2023-05-10T12:13:02;6.00;;;4.25;;
35648;SDS011;21768;48.562;13.414;2023-05-10T12:15:28;5.40;;;4.68;;
35648;SDS011;21768;48.562;13.414;2023-05-10T12:17:53;5.05;;;4.10;;
35648;SDS011;21768;48.562;13.414;2023-05-10T12:20:20;5.35;;;4.25;;
35648;SDS011;21768;48.562;13.414;2023-05-10T12:22:50;6.15;;;4.45;;
35648;SDS011;21768;48.562;13.414;2023-05-10T12:25:20;6.18;;;3.97;;
35648;SDS011;21768;48.562;13.414;2023-05-10T12:27:54;6.35;;;4.53;;
35648;SDS011;21768;48.562;13.414;2023-05-10T12:30:24;5.85;;;4.10;;
35648;SDS011;21768;48.562;13.414;2023-05-10T12:32:51;5.18;;;3.85;;
35648;SDS011;21768;48.562;13.414;2023-05-10T12:35:17;5.95;;;4.28;;
35648;SDS011;21768;48.562;13.414;2023-05-10T12:37:46;5.32;;;3.95;;
35648;SDS011;21768;48.562;13.414;2023-05-10T12:40:12;6.35;;;3.95;;
35648;SDS011;21768;48.562;13.414;2023-05-10T12:42:38;6.95;;;4.78;;
35648;SDS011;21768;48.562;13.414;2023-05-10T12:45:05;5.53;;;3.95;;
35648;SDS011;21768;48.562;13.414;2023-05-10T12:47:31;5.00;;;4.10;;
35648;SDS011;21768;48.562;13.414;2023-05-10T12:49:57;4.70;;;3.63;;
35648;SDS011;21768;48.562;13.414;2023-05-10T12:52:24;6.38;;;4.20;;
35648;SDS011;21768;48.562;13.414;2023-05-10T12:54:49;5.55;;;3.75;;
35648;SDS011;21768;48.562;13.414;2023-05-10T12:57:15;8.82;;;5.10;;
35648;SDS011;21768;48.562;13.414;2023-05-10T12:59:40;7.22;;;4.70;;
35648;SDS011;21768;48.562;13.414;2023-05-10T13:02:05;7.22;;;4.57;;
35648;SDS011;21768;48.562;13.414;2023-05-10T13:04:31;7.03;;;4.40;;
35648;SDS011;21768;48.562;13.414;2023-05-10T13:06:57;6.93;;;4.43;;
35648;SDS011;21768;48.562;13.414;2023-05-10T13:09:24;6.13;;;4.80;;
35648;SDS011;21768;48.562;13.414;2023-05-10T13:11:50;6.60;;;4.72;;
35648;SDS011;21768;48.562;13.414;2023-05-10T13:14:16;6.47;;;4.30;;
35648;SDS011;21768;48.562;13.414;2023-05-10T13:16:41;8.20;;;4.60;;
35648;SDS011;21768;48.562;13.414;2023-05-10T13:19:06;7.47;;;4.63;;
35648;SDS011;21768;48.562;13.414;2023-05-10T13:21:32;6.93;;;4.85;;
35648;SDS011;21768;48.562;13.414;2023-05-10T13:23:57;5.05;;;4.20;;
35648;SDS011;21768;48.562;13.414;2023-05-10T13:26:23;5.60;;;4.38;;
35648;SDS011;21768;48.562;13.414;2023-05-10T13:28:48;5.95;;;4.10;;
35648;SDS011;21768;48.562;13.414;2023-05-10T13:31:16;7.18;;;3.70;;
35648;SDS011;21768;48.562;13.414;2023-05-10T13:33:41;5.68;;;3.75;;
35648;SDS011;21768;48.562;13.414;2023-05-10T13:36:07;5.15;;;3.70;;
35648;SDS011;21768;48.562;13.414;2023-05-10T13:38:32;4.82;;;3.50;;
35648;SDS011;21768;48.562;13.414;2023-05-10T13:40:57;6.78;;;3.53;;
35648;SDS011;21768;48.562;13.414;2023-05-10T13:43:23;5.13;;;3.58;;
35648;SDS011;21768;48.562;13.414;2023-05-10T13:45:49;4.80;;;3.65;;
35648;SDS011;21768;48.562;13.414;2023-05-10T13:48:14;4.00;;;3.17;;
35648;SDS011;21768;48.562;13.414;2023-05-10T13:50:40;7.38;;;3.50;;
35648;SDS011;21768;48.562;13.414;2023-05-10T13:53:05;3.05;;;2.58;;
35648;SDS011;21768;48.562;13.414;2023-05-10T13:55:30;4.57;;;2.97;;
35648;SDS011;21768;48.562;13.414;2023-05-10T13:57:56;4.93;;;2.20;;
35648;SDS011;21768;48.562;13.414;2023-05-10T14:00:22;3.58;;;2.30;;
35648;SDS011;21768;48.562;13.414;2023-05-10T14:02:47;3.95;;;2.70;;
35648;SDS011;21768;48.562;13.414;2023-05-10T14:05:13;2.50;;;2.10;;
35648;SDS011;21768;48.562;13.414;2023-05-10T14:07:38;2.33;;;1.83;;
35648;SDS011;21768;48.562;13.414;2023-05-10T14:10:03;2.33;;;1.80;;
35648;SDS011;21768;48.562;13.414;2023-05-10T14:12:29;2.40;;;1.70;;
35648;SDS011;21768;48.562;13.414;2023-05-10T14:14:54;2.55;;;1.52;;
35648;SDS011;21768;48.562;13.414;2023-05-10T14:17:20;5.80;;;1.70;;
35648;SDS011;21768;48.562;13.414;2023-05-10T14:19:45;2.00;;;1.35;;
35648;SDS011;21768;48.562;13.414;2023-05-10T14:22:11;2.13;;;1.30;;
35648;SDS011;21768;48.562;13.414;2023-05-10T14:24:37;3.97;;;1.63;;
35648;SDS011;21768;48.562;13.414;2023-05-10T14:27:03;3.42;;;1.88;;
35648;SDS011;21768;48.562;13.414;2023-05-10T14:29:28;3.10;;;1.98;;
35648;SDS011;21768;48.562;13.414;2023-05-10T14:31:53;3.92;;;2.40;;
35648;SDS011;21768;48.562;13.414;2023-05-10T14:34:19;3.67;;;2.22;;
35648;SDS011;21768;48.562;13.414;2023-05-10T14:36:45;5.13;;;1.70;;
35648;SDS011;21768;48.562;13.414;2023-05-10T14:39:10;5.07;;;2.95;;
35648;SDS011;21768;48.562;13.414;2023-05-10T14:41:37;4.20;;;2.40;;
35648;SDS011;21768;48.562;13.414;2023-05-10T14:44:05;5.72;;;4.03;;
35648;SDS011;21768;48.562;13.414;2023-05-10T14:46:31;4.43;;;2.50;;
35648;SDS011;21768;48.562;13.414;2023-05-10T14:48:56;6.28;;;4.28;;
35648;SDS011;21768;48.562;13.414;2023-05-10T14:51:22;4.50;;;2.70;;
35648;SDS011;21768;48.562;13.414;2023-05-10T14:53:48;4.20;;;2.78;;
35648;SDS011;21768;48.562;13.414;2023-05-10T14:56:14;10.27;;;4.43;;
35648;SDS011;21768;48.562;13.414;2023-05-10T14:58:40;4.75;;;2.40;;
35648;SDS011;21768;48.562;13.414;2023-05-10T15:01:05;4.15;;;2.30;;
35648;SDS011;21768;48.562;13.414;2023-05-10T15:03:30;2.55;;;1.98;;
35648;SDS011;21768;48.562;13.414;2023-05-10T15:05:56;2.47;;;1.85;;
35648;SDS011;21768;48.562;13.414;2023-05-10T15:08:22;5.88;;;2.10;;